Time;durP1;ratioP1;P1;durP2;ratioP2;P2;SDS_P1;SDS_P2;PMS_P1;PMS_P2;Temp;Humidity;BMP_temperature;BMP_pressure;BME280_temperature;BME280_humidity;BME280_pressure;Samples;Min_cycle;Max_cycle;Signal;HPM_P1;HPM_P2
2021/03/23 00:01:44;;;;;;;5.75;1.98;;;;;;;1.23;50.15;99720.70;1783618;80;21458;-58
2021/03/23 00:04:13;;;;;;;7.05;2.30;;;;;;;1.18;50.19;99718.96;1783572;80;21746;-57
2021/03/23 00:06:41;;;;;;;4.85;1.82;;;;;;;1.12;50.31;99717.38;1783702;80;21893;-58
2021/03/23 00:09:09;;;;;;;7.35;1.90;;;;;;;1.10;50.33;99727.48;1783533;80;21354;-58
2021/03/23 00:11:40;;;;;;;7.42;1.90;;;;;;;1.06;50.31;99722.05;1783555;80;21356;-59
2021/03/23 00:14:11;;;;;;;6.60;2.00;;;;;;;1.00;50.42;99726.20;1783492;80;21338;-59
2021/03/23 00:16:41;;;;;;;6.55;2.22;;;;;;;0.98;50.48;99724.16;1783607;80;21828;-58
2021/03/23 00:19:09;;;;;;;5.85;1.98;;;;;;;0.93;50.51;99725.12;1783582;80;21817;-57
2021/03/23 00:21:37;;;;;;;7.12;1.90;;;;;;;0.88;50.56;99726.08;1783592;80;21134;-58
2021/03/23 00:24:05;;;;;;;4.22;1.92;;;;;;;0.80;50.63;99722.80;1783568;80;21170;-57
2021/03/23 00:26:33;;;;;;;6.90;2.30;;;;;;;0.72;50.87;99722.70;1783633;80;21186;-58
2021/03/23 00:29:02;;;;;;;4.65;1.72;;;;;;;0.66;50.99;99718.42;1783511;80;21897;-57
2021/03/23 00:31:32;;;;;;;7.45;2.35;;;;;;;0.64;51.30;99715.84;1783490;80;21139;-60
2021/03/23 00:34:03;;;;;;;8.18;2.52;;;;;;;0.67;51.26;99719.61;1783440;80;21460;-58
2021/03/23 00:36:35;;;;;;;5.70;1.85;;;;;;;0.69;51.26;99718.97;1783518;80;21404;-59
2021/03/23 00:39:04;;;;;;;5.70;1.70;;;;;;;0.70;51.02;99718.47;1783308;80;21363;-58
2021/03/23 00:41:35;;;;;;;6.58;1.75;;;;;;;0.66;50.96;99718.42;1783565;80;21397;-58
2021/03/23 00:44:06;;;;;;;4.22;1.80;;;;;;;0.63;50.90;99719.03;1783559;80;21402;-59
2021/03/23 00:46:34;;;;;;;5.92;1.90;;;;;;;0.62;50.94;99720.03;1783530;80;21237;-59
2021/03/23 00:49:02;;;;;;;6.08;1.90;;;;;;;0.62;50.85;99713.80;1783387;79;21261;-59
2021/03/23 00:51:31;;;;;;;4.78;1.77;;;;;;;0.63;50.91;99712.80;1783576;80;21183;-58
2021/03/23 00:53:58;;;;;;;6.05;1.98;;;;;;;0.67;50.76;99716.92;1772199;79;21866;-57
2021/03/23 00:56:26;;;;;;;4.55;1.98;;;;;;;0.63;50.82;99714.14;1765696;81;21400;-58
2021/03/23 00:58:53;;;;;;;5.92;2.00;;;;;;;0.62;50.74;99715.14;1765530;80;21158;-58
2021/03/23 01:01:21;;;;;;;5.22;1.82;;;;;;;0.58;50.62;99718.64;1765708;80;21129;-58
2021/03/23 01:03:50;;;;;;;10.30;2.40;;;;;;;0.52;50.73;99716.55;1765716;81;21245;-58
2021/03/23 01:06:18;;;;;;;8.50;2.05;;;;;;;0.50;50.83;99720.39;1765773;80;21321;-57
2021/03/23 01:08:45;;;;;;;7.05;1.60;;;;;;;0.53;50.84;99721.44;1765668;81;21181;-58
2021/03/23 01:11:13;;;;;;;5.90;2.02;;;;;;;0.52;50.78;99713.01;1765629;81;21404;-57
2021/03/23 01:13:41;;;;;;;3.35;1.40;;;;;;;0.52;50.95;99710.31;1765550;79;21126;-58
2021/03/23 01:16:08;;;;;;;5.12;1.87;;;;;;;0.53;50.87;99710.16;1765624;81;21490;-57
2021/03/23 01:18:36;;;;;;;6.30;1.77;;;;;;;0.52;50.98;99711.16;1765837;81;21146;-57
2021/03/23 01:21:04;;;;;;;7.08;1.47;;;;;;;0.53;50.87;99711.51;1765659;81;21161;-58
2021/03/23 01:23:32;;;;;;;3.95;1.52;;;;;;;0.49;50.91;99709.27;1765736;81;21117;-60
2021/03/23 01:26:00;;;;;;;4.90;1.65;;;;;;;0.47;51.02;99712.61;1765761;80;21395;-58
2021/03/23 01:28:27;;;;;;;5.40;1.72;;;;;;;0.45;51.14;99715.95;1765773;81;21152;-58
2021/03/23 01:30:55;;;;;;;4.30;2.05;;;;;;;0.43;51.20;99712.06;1765794;81;21849;-58
2021/03/23 01:33:22;;;;;;;5.28;2.05;;;;;;;0.45;51.12;99724.03;1765645;79;21313;-58
2021/03/23 01:35:52;;;;;;;6.17;2.15;;;;;;;0.42;51.24;99718.95;1765755;81;21157;-58
2021/03/23 01:38:19;;;;;;;5.28;2.08;;;;;;;0.42;51.31;99716.25;1765648;81;21118;-58
2021/03/23 01:40:48;;;;;;;7.97;2.17;;;;;;;0.40;51.37;99711.52;1765669;80;21181;-58
2021/03/23 01:43:29;;;;;;;6.35;2.00;;;;;;;0.36;51.49;99716.35;1765590;80;21859;-58
2021/03/23 01:45:58;;;;;;;5.37;1.85;;;;;;;0.35;51.55;99714.66;1765726;80;21405;-57
2021/03/23 01:48:32;;;;;;;6.92;2.20;;;;;;;0.32;51.57;99720.34;1765801;79;21425;-57
2021/03/23 01:51:03;;;;;;;6.42;2.10;;;;;;;0.22;51.77;99717.69;1765993;79;21864;-58
2021/03/23 01:53:47;;;;;;;8.15;2.60;;;;;;;0.13;51.95;99717.73;1765238;81;21145;-58
2021/03/23 01:56:16;;;;;;;7.95;2.20;;;;;;;0.08;52.19;99719.52;1765251;79;21176;-57
2021/03/23 01:58:46;;;;;;;7.37;2.35;;;;;;;0.09;52.23;99718.53;1740087;81;21313;-58
2021/03/23 02:01:15;;;;;;;5.00;2.20;;;;;;;0.04;52.38;99713.23;1765884;81;21336;-59
2021/03/23 02:03:43;;;;;;;5.08;1.70;;;;;;;0.02;52.51;99711.19;1765757;80;21188;-58
2021/03/23 02:06:34;;;;;;;6.55;1.95;;;;;;;0.04;52.61;99717.27;1765739;80;21331;-58
2021/03/23 02:09:03;;;;;;;5.22;1.82;;;;;;;0.05;52.62;99720.31;1765670;79;21173;-58
2021/03/23 02:11:31;;;;;;;5.53;2.10;;;;;;;0.02;52.68;99717.92;1765906;79;21459;-58
2021/03/23 02:14:00;;;;;;;6.60;2.15;;;;;;;-0.01;52.81;99720.38;1765783;79;21122;-58
2021/03/23 02:16:28;;;;;;;6.78;2.55;;;;;;;0.01;52.91;99726.99;1765803;81;21435;-57
2021/03/23 02:18:56;;;;;;;9.55;3.22;;;;;;;0.04;52.95;99718.62;1765662;80;21299;-57
2021/03/23 02:21:24;;;;;;;9.25;3.20;;;;;;;0.02;52.92;99721.46;1765703;80;21188;-59
2021/03/23 02:23:54;;;;;;;9.95;3.70;;;;;;;-0.01;52.99;99720.38;1765741;81;21405;-58
2021/03/23 02:26:28;;;;;;;9.50;3.12;;;;;;;0.01;53.12;99718.91;1765890;79;21913;-57
2021/03/23 02:29:03;;;;;;;8.50;2.80;;;;;;;0.03;53.12;99719.12;1765824;81;21161;-58
2021/03/23 02:31:34;;;;;;;9.55;2.77;;;;;;;0.06;53.05;99717.48;1769589;80;21412;-57
2021/03/23 02:34:04;;;;;;;8.33;2.65;;;;;;;0.03;52.90;99714.23;1783508;80;21421;-58
2021/03/23 02:36:32;;;;;;;8.45;2.40;;;;;;;-0.03;52.97;99719.17;1783507;80;21328;-56
2021/03/23 02:39:00;;;;;;;8.05;2.47;;;;;;;-0.06;53.09;99717.27;1783561;79;21376;-58
2021/03/23 02:41:28;;;;;;;8.25;2.20;;;;;;;-0.13;53.21;99725.09;1783553;80;21161;-58
2021/03/23 02:43:56;;;;;;;6.42;2.25;;;;;;;-0.19;53.40;99724.82;1783618;79;21230;-58
2021/03/23 02:46:24;;;;;;;7.92;2.30;;;;;;;-0.26;53.61;99727.25;1783579;80;21138;-57
2021/03/23 02:48:52;;;;;;;6.60;2.17;;;;;;;-0.28;53.77;99719.81;1783482;79;21213;-60
2021/03/23 02:51:20;;;;;;;4.00;1.50;;;;;;;-0.23;53.88;99732.84;1783689;79;21325;-57
2021/03/23 02:53:49;;;;;;;5.67;2.10;;;;;;;-0.20;53.83;99720.44;1783493;79;21131;-58
2021/03/23 02:56:16;;;;;;;4.97;2.20;;;;;;;-0.27;53.80;99727.39;1783461;80;21430;-59
2021/03/23 02:58:45;;;;;;;5.72;1.90;;;;;;;-0.37;54.02;99727.41;1783588;79;21351;-58
2021/03/23 03:01:13;;;;;;;7.83;2.12;;;;;;;-0.37;54.23;99731.45;1783557;80;21142;-58
2021/03/23 03:03:41;;;;;;;4.33;1.85;;;;;;;-0.33;54.24;99735.55;1783546;79;21133;-58
2021/03/23 03:06:09;;;;;;;4.12;1.47;;;;;;;-0.29;54.21;99729.38;1783487;79;21384;-57
2021/03/23 03:08:37;;;;;;;5.53;2.02;;;;;;;-0.27;54.11;99733.63;1783568;80;21373;-57
2021/03/23 03:11:06;;;;;;;3.20;1.70;;;;;;;-0.32;54.21;99731.38;1783455;80;21210;-57
2021/03/23 03:13:34;;;;;;;5.00;1.60;;;;;;;-0.29;54.30;99730.73;1783423;80;21153;-56
2021/03/23 03:16:03;;;;;;;4.92;1.75;;;;;;;-0.30;54.23;99737.95;1783532;80;21154;-58
2021/03/23 03:18:31;;;;;;;7.33;2.42;;;;;;;-0.35;54.27;99728.97;1783431;80;21150;-58
2021/03/23 03:20:59;;;;;;;4.47;1.77;;;;;;;-0.38;54.43;99731.95;1783611;80;21384;-56
2021/03/23 03:23:27;;;;;;;7.03;2.10;;;;;;;-0.37;54.60;99727.41;1783431;80;21137;-58
2021/03/23 03:25:58;;;;;;;8.23;2.65;;;;;;;-0.36;54.64;99725.92;1783411;80;21127;-58
2021/03/23 03:28:26;;;;;;;7.62;2.95;;;;;;;-0.30;54.64;99727.19;1783364;80;21107;-57
2021/03/23 03:30:54;;;;;;;6.42;2.12;;;;;;;-0.27;54.50;99727.39;1783453;80;21390;-58
2021/03/23 03:33:22;;;;;;;5.95;2.20;;;;;;;-0.25;54.51;99728.09;1783437;80;21401;-58
2021/03/23 03:35:51;;;;;;;9.23;2.08;;;;;;;-0.24;54.53;99731.98;1783504;80;21354;-59
2021/03/23 03:38:24;;;;;;;7.95;2.90;;;;;;;-0.21;54.47;99729.50;1783516;80;21408;-57
2021/03/23 03:40:55;;;;;;;6.05;2.62;;;;;;;-0.24;54.47;99735.18;1783433;80;21171;-57
2021/03/23 03:43:26;;;;;;;6.40;2.60;;;;;;;-0.29;54.52;99727.54;1783377;80;21435;-58
2021/03/23 03:45:54;;;;;;;6.75;2.60;;;;;;;-0.30;54.64;99733.92;1783435;80;21158;-60
2021/03/23 03:48:22;;;;;;;8.38;3.00;;;;;;;-0.25;54.62;99734.83;1783624;79;21511;-61
2021/03/23 03:50:49;;;;;;;17.25;6.37;;;;;;;-0.22;54.55;99734.54;1783485;80;21166;-60
2021/03/23 03:53:18;;;;;;;11.88;4.47;;;;;;;-0.25;54.54;99734.83;1783583;80;21307;-58
2021/03/23 03:55:46;;;;;;;13.30;3.67;;;;;;;-0.28;54.61;99737.31;1783509;80;21484;-59
2021/03/23 03:58:13;;;;;;;8.95;3.15;;;;;;;-0.30;54.64;99740.64;1783542;80;21916;-57
2021/03/23 04:00:41;;;;;;;12.65;3.95;;;;;;;-0.35;54.74;99741.08;1783575;80;21272;-58
2021/03/23 04:03:22;;;;;;;8.68;3.80;;;;;;;-0.40;54.87;99751.42;1783520;80;21847;-60
2021/03/23 04:05:51;;;;;;;9.85;3.42;;;;;;;-0.40;54.98;99749.23;1783630;79;21162;-57
2021/03/23 04:08:22;;;;;;;8.98;3.05;;;;;;;-0.37;55.00;99750.29;1783501;80;21165;-57
2021/03/23 04:10:52;;;;;;;9.38;3.00;;;;;;;-0.31;54.93;99751.06;1783534;80;21321;-58
2021/03/23 04:13:20;;;;;;;8.25;2.98;;;;;;;-0.29;54.85;99752.27;1783520;80;21123;-57
2021/03/23 04:15:49;;;;;;;6.85;2.83;;;;;;;-0.23;54.91;99754.38;1783561;80;21365;-58
2021/03/23 04:18:20;;;;;;;9.10;2.77;;;;;;;-0.19;54.72;99757.13;1783703;80;21348;-57
2021/03/23 04:20:50;;;;;;;8.60;3.12;;;;;;;-0.24;54.67;99754.02;1783538;80;21856;-57
2021/03/23 04:23:37;;;;;;;9.23;3.25;;;;;;;-0.28;54.77;99754.81;1783633;80;21919;-57
2021/03/23 04:26:06;;;;;;;8.13;2.50;;;;;;;-0.29;54.85;99757.14;1783744;79;21375;-59
2021/03/23 04:28:34;;;;;;;10.95;3.60;;;;;;;-0.24;54.88;99756.22;1783599;80;21424;-59
2021/03/23 04:31:02;;;;;;;9.05;3.20;;;;;;;-0.24;54.86;99757.56;1783622;80;21131;-59
2021/03/23 04:33:30;;;;;;;8.63;2.75;;;;;;;-0.25;54.90;99765.28;1783532;79;21166;-58
2021/03/23 04:36:01;;;;;;;8.88;3.15;;;;;;;-0.32;54.98;99758.28;1783517;80;21154;-58
2021/03/23 04:38:34;;;;;;;9.40;2.83;;;;;;;-0.33;55.10;99766.01;1783761;80;21424;-58
2021/03/23 04:41:08;;;;;;;9.68;2.77;;;;;;;-0.32;55.12;99762.33;1783586;80;21123;-58
2021/03/23 04:43:42;;;;;;;5.45;2.22;;;;;;;-0.31;55.16;99759.13;1783472;80;21197;-59
2021/03/23 04:46:11;;;;;;;9.45;2.05;;;;;;;-0.32;55.10;99767.70;1783516;80;21181;-58
2021/03/23 04:48:38;;;;;;;9.45;3.62;;;;;;;-0.31;55.11;99764.52;1783676;80;21359;-58
2021/03/23 04:51:08;;;;;;;6.65;2.20;;;;;;;-0.34;55.14;99767.00;1783518;80;21139;-58
2021/03/23 04:53:38;;;;;;;9.43;2.40;;;;;;;-0.33;55.18;99758.43;1774989;79;21144;-58
2021/03/23 04:56:07;;;;;;;7.35;2.42;;;;;;;-0.35;55.22;99759.92;1765783;81;21140;-57
2021/03/23 04:58:34;;;;;;;6.60;2.67;;;;;;;-0.40;55.25;99768.92;1765803;79;21367;-57
2021/03/23 05:01:02;;;;;;;41.02;3.60;;;;;;;-0.39;55.37;99772.45;1765802;80;21402;-59
2021/03/23 05:03:32;;;;;;;7.90;2.42;;;;;;;-0.35;55.43;99770.69;1765886;79;21148;-58
2021/03/23 05:06:09;;;;;;;7.10;2.75;;;;;;;-0.29;55.29;99773.80;1765796;80;21173;-58
2021/03/23 05:08:34;;;;;;;10.60;2.83;;;;;;;-0.25;55.24;99771.16;1765161;80;21406;-58
2021/03/23 05:11:03;;;;;;;11.03;2.90;;;;;;;-0.22;55.10;99777.61;1765576;81;21268;-58
2021/03/23 05:13:31;;;;;;;9.70;2.47;;;;;;;-0.20;55.03;99771.58;1765668;80;21146;-59
2021/03/23 05:15:59;;;;;;;6.80;2.77;;;;;;;-0.20;54.95;99768.89;1765690;81;21176;-59
2021/03/23 05:18:27;;;;;;;11.08;2.98;;;;;;;-0.21;54.92;99769.39;1765889;81;21185;-59
2021/03/23 05:20:55;;;;;;;9.13;2.70;;;;;;;-0.20;54.80;99771.08;1766042;81;21417;-59
2021/03/23 05:23:23;;;;;;;5.78;2.02;;;;;;;-0.22;54.84;99774.91;1765838;80;21407;-58
2021/03/23 05:25:51;;;;;;;7.15;2.02;;;;;;;-0.25;54.92;99776.05;1765966;80;21145;-58
2021/03/23 05:28:19;;;;;;;8.05;2.17;;;;;;;-0.24;54.91;99771.52;1765778;80;21173;-58
2021/03/23 05:30:48;;;;;;;13.85;3.00;;;;;;;-0.19;54.96;99770.59;1765680;81;21503;-59
2021/03/23 05:33:16;;;;;;;12.10;4.08;;;;;;;-0.09;54.83;99775.45;1765720;81;21437;-58
2021/03/23 05:35:44;;;;;;;9.38;2.80;;;;;;;-0.03;54.69;99770.83;1765698;80;21158;-60
2021/03/23 05:38:12;;;;;;;10.20;2.95;;;;;;;-0.02;54.55;99778.77;1765547;81;21179;-57
2021/03/23 05:40:44;;;;;;;9.68;2.37;;;;;;;0.02;54.53;99778.01;1765652;81;21137;-60
2021/03/23 05:43:29;;;;;;;11.45;3.20;;;;;;;0.03;54.36;99779.71;1765740;81;21145;-59
2021/03/23 05:46:24;;;;;;;11.05;2.92;;;;;;;0.03;54.52;99781.06;1765754;79;21400;-61
2021/03/23 05:49:37;;;;;;;11.78;3.22;;;;;;;0.10;54.42;99782.66;1765660;80;21357;-61
2021/03/23 05:52:16;;;;;;;13.22;3.40;;;;;;;0.11;54.28;99775.79;1765803;81;21193;-62
2021/03/23 05:55:18;;;;;;;10.68;3.65;;;;;;;0.20;54.25;99777.60;1765650;79;21129;-62
2021/03/23 05:57:48;;;;;;;9.33;3.50;;;;;;;0.26;53.96;99786.44;1765833;81;21416;-59
2021/03/23 06:00:27;;;;;;;6.75;2.72;;;;;;;0.24;53.60;99781.70;1765620;80;21195;-60
2021/03/23 06:03:20;;;;;;;6.83;2.65;;;;;;;0.26;53.63;99777.02;1764923;80;21146;-60
2021/03/23 06:06:14;;;;;;;4.95;2.40;;;;;;;0.30;53.55;99783.80;1773348;79;21162;-60
2021/03/23 06:08:42;;;;;;;9.05;2.85;;;;;;;0.36;53.32;99773.44;1783346;80;21401;-58
2021/03/23 06:11:43;;;;;;;7.10;2.37;;;;;;;0.42;53.33;99782.27;1783599;80;21193;-58
2021/03/23 06:14:41;;;;;;;12.45;3.22;;;;;;;0.54;52.97;99783.78;1783443;79;21178;-61
2021/03/23 06:17:30;;;;;;;5.42;2.40;;;;;;;0.57;52.79;99788.37;1783479;80;21442;-60
2021/03/23 06:20:13;;;;;;;12.78;3.20;;;;;;;0.61;52.49;99783.53;1783582;80;21138;-58
2021/03/23 06:23:03;;;;;;;6.83;2.87;;;;;;;0.62;52.30;99784.73;1783397;80;21208;-58
2021/03/23 06:25:54;;;;;;;6.25;2.12;;;;;;;0.69;52.33;99785.02;1783428;80;21178;-59
2021/03/23 06:28:58;;;;;;;8.88;1.70;;;;;;;0.81;51.94;99784.31;1783367;80;21242;-58
2021/03/23 06:32:00;;;;;;;10.32;2.47;;;;;;;0.97;51.50;99790.39;1783419;80;21886;-60
2021/03/23 06:34:31;;;;;;;4.50;1.90;;;;;;;1.15;50.75;99798.01;1780686;80;21150;-58
2021/03/23 06:36:59;;;;;;;3.22;1.40;;;;;;;1.31;50.06;99796.86;1783409;79;21372;-59
2021/03/23 06:39:30;;;;;;;5.80;1.77;;;;;;;1.40;49.44;99802.69;1783533;80;21261;-59
2021/03/23 06:42:02;;;;;;;3.17;1.55;;;;;;;1.44;48.98;99799.17;1783516;80;21297;-60
2021/03/23 06:44:38;;;;;;;8.65;1.67;;;;;;;1.48;48.83;99802.77;1783364;80;21746;-59
2021/03/23 06:47:06;;;;;;;4.03;2.10;;;;;;;1.57;48.53;99813.14;1783110;79;21138;-59
2021/03/23 06:49:36;;;;;;;9.13;1.98;;;;;;;1.67;48.54;99808.50;1783565;80;21432;-60
2021/03/23 06:52:21;;;;;;;6.75;1.70;;;;;;;1.77;48.19;99810.61;1783514;80;21357;-59
2021/03/23 06:55:17;;;;;;;5.08;2.05;;;;;;;1.87;47.72;99810.52;1783343;79;21142;-59
2021/03/23 06:57:45;;;;;;;7.60;1.67;;;;;;;1.86;46.84;99805.63;1778406;80;21484;-57
2021/03/23 07:00:29;;;;;;;3.62;1.30;;;;;;;1.91;46.42;99811.91;1783402;80;21914;-57
2021/03/23 07:03:13;;;;;;;3.12;1.40;;;;;;;1.96;46.14;99810.97;1783449;80;21142;-60
2021/03/23 07:05:43;;;;;;;5.42;1.65;;;;;;;1.98;45.62;99806.25;1783454;80;21440;-59
2021/03/23 07:08:20;;;;;;;4.80;1.52;;;;;;;2.06;45.22;99802.77;1783189;80;21310;-61
2021/03/23 07:11:01;;;;;;;4.30;1.40;;;;;;;2.13;44.40;99808.73;1783441;80;21376;-59
2021/03/23 07:13:33;;;;;;;3.95;1.32;;;;;;;2.19;44.23;99808.09;1783442;79;21392;-60
2021/03/23 07:16:12;;;;;;;3.52;1.27;;;;;;;2.21;43.63;99796.63;1783474;80;21417;-59
2021/03/23 07:18:45;;;;;;;6.53;1.15;;;;;;;2.25;43.04;99799.00;1783497;80;21316;-58
2021/03/23 07:21:23;;;;;;;9.83;1.57;;;;;;;2.25;42.26;99802.56;1782966;79;21153;-58
2021/03/23 07:24:15;;;;;;;9.20;4.78;;;;;;;2.25;41.91;99804.41;1783569;79;21170;-59
2021/03/23 07:27:03;;;;;;;2.67;1.35;;;;;;;2.25;41.42;99797.16;1783390;79;21308;-57
2021/03/23 07:29:35;;;;;;;8.18;1.00;;;;;;;2.29;40.97;99805.78;1783624;79;21131;-60
2021/03/23 07:32:27;;;;;;;2.75;0.88;;;;;;;2.32;40.76;99797.36;1783424;80;21174;-58
2021/03/23 07:35:06;;;;;;;4.62;1.20;;;;;;;2.37;40.20;99812.09;1783447;80;21190;-57
2021/03/23 07:38:02;;;;;;;7.80;1.30;;;;;;;2.38;40.24;99798.92;1783269;80;21398;-58
2021/03/23 07:40:43;;;;;;;22.07;2.02;;;;;;;2.48;40.28;99802.86;1783308;80;21139;-58
2021/03/23 07:43:43;;;;;;;9.40;1.50;;;;;;;2.58;40.42;99799.53;1783492;80;21185;-59
2021/03/23 07:46:28;;;;;;;2.12;1.20;;;;;;;2.69;39.40;99795.22;1772234;80;21116;-58
2021/03/23 07:49:30;;;;;;;3.75;1.27;;;;;;;2.75;39.32;99794.58;1769924;80;21131;-59
2021/03/23 07:52:29;;;;;;;3.45;1.25;;;;;;;2.87;39.78;99799.19;1769698;81;21139;-58
2021/03/23 07:54:59;;;;;;;3.17;0.93;;;;;;;3.03;39.16;99792.98;1770007;80;21427;-58
2021/03/23 07:58:05;;;;;;;4.10;0.90;;;;;;;3.05;37.81;99789.61;1756674;81;21150;-58
2021/03/23 08:00:47;;;;;;;1.35;0.80;;;;;;;3.03;38.20;99793.83;1702817;81;21968;-58
2021/03/23 08:03:38;;;;;;;1.22;0.72;;;;;;;3.05;38.00;99791.81;1739057;81;21373;-57
2021/03/23 08:07:04;;;;;;;3.45;0.90;;;;;;;3.11;38.22;99792.50;1739187;81;21273;-59
2021/03/23 08:09:49;;;;;;;5.80;1.20;;;;;;;3.19;38.37;99793.03;1738278;81;21861;-59
2021/03/23 08:12:48;;;;;;;3.87;0.98;;;;;;;3.30;37.80;99795.45;1760199;79;21396;-59
2021/03/23 08:15:55;;;;;;;5.33;1.25;;;;;;;3.34;37.18;99788.70;1769931;79;21385;-58
2021/03/23 08:18:58;;;;;;;5.78;2.20;;;;;;;3.44;36.59;99789.90;1791362;79;21437;-59
2021/03/23 08:21:57;;;;;;;13.20;6.08;;;;;;;3.46;35.51;99778.39;1769658;81;21486;-60
2021/03/23 08:24:42;;;;;;;6.78;2.45;;;;;;;3.52;35.53;99782.29;1769630;81;21908;-58
2021/03/23 08:27:44;;;;;;;6.03;0.82;;;;;;;3.56;35.26;99785.00;1769499;81;21540;-58
2021/03/23 08:30:46;;;;;;;1.77;0.50;;;;;;;3.58;34.86;99779.75;1769408;81;21250;-60
2021/03/23 08:33:44;;;;;;;2.33;0.72;;;;;;;3.58;34.60;99780.27;1758237;79;21753;-59
2021/03/23 08:36:21;;;;;;;;;;;;;;;3.55;34.85;99774.67;1771609;79;21197;-59
2021/03/23 08:39:10;;;;;;;1.22;0.65;;;;;;;3.60;35.06;99782.30;1738548;81;20215;-61
2021/03/23 08:41:54;;;;;;;3.15;1.02;;;;;;;3.70;34.57;99772.14;1749765;79;21166;-59
2021/03/23 08:44:32;;;;;;;3.52;0.70;;;;;;;3.76;34.42;99793.98;1798599;79;21170;-60
2021/03/23 08:47:33;;;;;;;1.77;0.53;;;;;;;3.74;34.32;99786.53;1760810;79;22057;-58
2021/03/23 08:50:09;;;;;;;4.53;0.78;;;;;;;3.76;33.94;99785.02;1762905;79;21445;-59
2021/03/23 08:52:44;;;;;;;3.05;0.78;;;;;;;3.81;34.63;99786.20;1732186;80;21142;-58
2021/03/23 08:55:31;;;;;;;5.80;1.05;;;;;;;3.93;34.48;99785.89;1777617;79;21181;-59
2021/03/23 08:58:07;;;;;;;2.42;0.70;;;;;;;3.99;34.53;99781.98;1776267;80;21389;-58
2021/03/23 09:00:47;;;;;;;1.95;0.50;;;;;;;4.09;34.76;99782.66;1777902;80;21444;-59
2021/03/23 09:03:20;;;;;;;4.70;0.75;;;;;;;4.22;34.66;99783.99;1766646;79;21158;-58
2021/03/23 09:05:59;;;;;;;2.65;0.60;;;;;;;4.36;34.23;99781.93;1780514;79;21138;-59
2021/03/23 09:08:44;;;;;;;4.62;1.00;;;;;;;4.46;34.19;99777.16;1764416;80;21118;-58
2021/03/23 09:11:38;;;;;;;2.15;0.70;;;;;;;4.61;34.05;99787.66;1758666;80;21143;-61
2021/03/23 09:14:14;;;;;;;3.15;0.90;;;;;;;4.64;33.77;99783.23;1777832;79;21139;-59
2021/03/23 09:16:46;;;;;;;3.45;0.70;;;;;;;4.68;33.78;99770.16;1758147;79;21377;-59
2021/03/23 09:19:39;;;;;;;12.60;0.85;;;;;;;4.73;33.50;99771.84;1747037;81;21931;-58
2021/03/23 09:22:27;;;;;;;1.40;0.42;;;;;;;4.75;32.60;99761.66;1752250;80;21384;-60
2021/03/23 09:25:21;;;;;;;3.30;0.40;;;;;;;4.70;32.07;99758.11;1777947;80;21830;-60
2021/03/23 09:27:54;;;;;;;2.52;0.78;;;;;;;4.64;31.84;99772.38;1777953;79;21512;-59
2021/03/23 09:30:42;;;;;;;2.12;0.70;;;;;;;4.55;32.36;99765.29;1740733;82;21414;-59
2021/03/23 09:33:24;;;;;;;2.98;0.80;;;;;;;4.57;32.36;99763.25;1763542;80;21535;-61
2021/03/23 09:36:11;;;;;;;2.92;0.90;;;;;;;4.59;32.95;99767.99;1785579;79;21213;-61
2021/03/23 09:38:47;;;;;;;3.15;0.70;;;;;;;4.68;32.23;99760.16;1811552;79;21192;-62
2021/03/23 09:41:33;;;;;;;3.08;0.50;;;;;;;4.73;32.53;99756.41;1774604;79;21135;-60
2021/03/23 09:44:15;;;;;;;2.30;0.68;;;;;;;4.73;32.35;99750.97;1746867;80;21136;-61
2021/03/23 09:46:54;;;;;;;3.92;0.70;;;;;;;4.79;32.96;99745.36;1737533;81;21955;-60
2021/03/23 09:49:36;;;;;;;1.07;0.50;;;;;;;4.89;32.56;99743.27;1755349;81;21128;-61
2021/03/23 09:52:27;;;;;;;2.92;0.70;;;;;;;4.94;32.48;99734.08;1769261;80;21570;-60
2021/03/23 09:55:01;;;;;;;2.87;0.75;;;;;;;5.00;32.60;99739.31;1769574;80;21353;-59
2021/03/23 09:57:31;;;;;;;1.98;0.70;;;;;;;5.11;32.68;99745.69;1769540;80;21269;-59
2021/03/23 10:00:01;;;;;;;6.92;1.10;;;;;;;5.26;32.61;99735.78;1768038;79;21147;-60
2021/03/23 10:02:34;;;;;;;2.85;0.75;;;;;;;5.35;32.34;99738.78;1769697;79;21890;-59
2021/03/23 10:05:20;;;;;;;1.80;0.70;;;;;;;5.37;32.65;99732.66;1765645;79;21487;-59
2021/03/23 10:07:50;;;;;;;2.67;0.70;;;;;;;5.42;32.39;99744.34;1754297;80;21415;-60
2021/03/23 10:10:27;;;;;;;1.65;0.78;;;;;;;5.51;32.64;99738.33;1739135;81;21818;-61
2021/03/23 10:12:57;;;;;;;7.92;0.90;;;;;;;5.64;31.61;99758.95;1739149;81;21311;-59
2021/03/23 10:15:36;;;;;;;3.30;0.70;;;;;;;5.67;31.42;99747.70;1738924;81;21143;-59
2021/03/23 10:18:20;;;;;;;2.65;0.80;;;;;;;5.66;31.50;99742.78;1738907;81;21414;-59
2021/03/23 10:20:59;;;;;;;2.35;0.90;;;;;;;5.61;31.52;99736.20;1739792;81;21234;-58
2021/03/23 10:23:28;;;;;;;1.60;0.75;;;;;;;5.56;31.15;99737.27;1739218;82;21277;-59
2021/03/23 10:25:56;;;;;;;11.53;1.50;;;;;;;5.55;31.63;99734.22;1740997;81;21405;-61
2021/03/23 10:28:33;;;;;;;4.33;1.22;;;;;;;5.68;31.70;99731.73;1743773;81;21420;-60
2021/03/23 10:31:08;;;;;;;4.67;1.47;;;;;;;5.83;31.66;99753.52;1755649;79;21418;-61
2021/03/23 10:33:38;;;;;;;5.97;1.30;;;;;;;5.80;31.89;99754.73;1763319;79;21159;-61
2021/03/23 10:36:13;;;;;;;2.70;1.10;;;;;;;5.70;32.00;99729.68;1741124;81;21174;-60
2021/03/23 10:38:45;;;;;;;4.45;1.10;;;;;;;5.67;32.83;99742.27;1745594;81;21150;-60
2021/03/23 10:41:24;;;;;;;7.35;1.00;;;;;;;5.72;33.16;99731.19;1722348;82;21437;-59
2021/03/23 10:44:13;;;;;;;3.33;0.82;;;;;;;5.82;33.25;99749.11;1752168;81;21210;-60
2021/03/23 10:46:43;;;;;;;6.65;1.00;;;;;;;5.77;33.84;99743.38;1744204;80;21158;-59
2021/03/23 10:49:26;;;;;;;3.37;0.80;;;;;;;5.75;33.91;99744.92;1729411;81;21181;-60
2021/03/23 10:52:01;;;;;;;5.65;0.90;;;;;;;5.68;33.09;99733.94;1744921;81;21334;-59
2021/03/23 10:54:36;;;;;;;1.65;0.78;;;;;;;5.71;33.11;99750.39;1752679;81;21123;-60
2021/03/23 10:57:37;;;;;;;2.90;0.60;;;;;;;5.72;32.11;99732.55;1764216;79;21211;-61
2021/03/23 11:00:29;;;;;;;2.58;0.60;;;;;;;5.88;32.40;99734.30;1740164;81;21297;-61
2021/03/23 11:03:20;;;;;;;5.60;0.78;;;;;;;6.10;31.61;99731.75;1754830;81;21115;-60
2021/03/23 11:05:51;;;;;;;9.15;0.70;;;;;;;6.14;30.10;99731.71;1750920;81;21531;-61
2021/03/23 11:08:19;;;;;;;3.60;0.70;;;;;;;5.99;29.90;99743.41;1769429;81;21139;-58
2021/03/23 11:10:46;;;;;;;5.17;0.98;;;;;;;5.79;29.76;99739.45;1743841;80;21277;-62
2021/03/23 11:13:15;;;;;;;1.90;0.75;;;;;;;5.79;30.25;99741.33;1739235;81;21393;-61
2021/03/23 11:15:48;;;;;;;8.70;0.70;;;;;;;5.84;31.21;99756.57;1759398;81;21265;-60
2021/03/23 11:18:27;;;;;;;3.67;0.80;;;;;;;5.79;32.27;99766.63;1768179;81;21416;-62
2021/03/23 11:20:58;;;;;;;1.85;0.70;;;;;;;5.66;34.21;99775.91;1701850;84;21468;-60
2021/03/23 11:23:41;;;;;;;4.47;0.80;;;;;;;5.55;35.38;99787.20;1759555;79;21162;-60
2021/03/23 11:26:11;;;;;;;3.27;1.02;;;;;;;5.54;36.44;99803.17;1760955;79;21174;-61
2021/03/23 11:28:39;;;;;;;1.92;0.68;;;;;;;5.49;36.93;99790.13;1782042;79;21498;-62
2021/03/23 11:31:07;;;;;;;3.02;0.80;;;;;;;5.45;37.33;99796.10;1723421;82;21950;-62
2021/03/23 11:33:35;;;;;;;4.62;0.80;;;;;;;5.25;37.79;99791.12;1767179;79;21316;-61
2021/03/23 11:36:04;;;;;;;2.45;0.60;;;;;;;5.21;37.99;99794.38;1749973;79;21928;-62
2021/03/23 11:38:33;;;;;;;4.87;1.30;;;;;;;5.13;38.54;99791.16;1745935;80;21499;-61
2021/03/23 11:41:01;;;;;;;1.45;0.75;;;;;;;5.10;39.13;99792.88;1747109;81;21378;-60
2021/03/23 11:43:47;;;;;;;1.92;0.78;;;;;;;5.12;39.19;99784.04;1752346;81;21801;-62
2021/03/23 11:46:26;;;;;;;6.10;1.50;;;;;;;5.24;38.98;99788.59;1739968;81;21433;-61
2021/03/23 11:49:06;;;;;;;2.33;0.70;;;;;;;5.36;38.76;99783.93;1743521;81;21230;-59
2021/03/23 11:51:30;;;;;;;5.17;2.27;;;;;;;5.49;39.33;99784.70;1733466;80;21241;-61
2021/03/23 11:53:59;;;;;;;4.12;1.27;;;;;;;5.66;39.68;99779.48;1748492;81;21202;-60
2021/03/23 11:56:29;;;;;;;4.40;1.10;;;;;;;5.86;40.10;99774.94;1769976;79;21173;-61
2021/03/23 11:58:59;;;;;;;3.98;1.55;;;;;;;6.03;39.36;99791.47;1765430;81;21282;-61
2021/03/23 12:01:27;;;;;;;1.80;1.00;;;;;;;6.08;40.09;99793.64;1769602;81;21148;-62
2021/03/23 12:03:56;;;;;;;3.17;1.30;;;;;;;6.04;41.60;99779.05;1778357;79;21839;-60
2021/03/23 12:06:32;;;;;;;2.95;0.88;;;;;;;5.90;40.76;99777.14;1741792;81;21166;-61
2021/03/23 12:09:04;;;;;;;4.85;0.90;;;;;;;5.70;41.34;99778.09;1756487;79;21865;-61
2021/03/23 12:11:38;;;;;;;1.80;0.60;;;;;;;5.73;41.56;99776.88;1760361;80;21123;-61
2021/03/23 12:14:38;;;;;;;2.77;0.90;;;;;;;5.75;41.57;99774.82;1756074;79;21907;-63
2021/03/23 12:17:12;;;;;;;6.55;1.02;;;;;;;5.76;41.85;99765.64;1742693;81;21843;-63
2021/03/23 12:19:48;;;;;;;2.20;0.88;;;;;;;5.99;41.36;99765.16;1754847;79;22098;-61